Station Historical Data
Daily Summary for January 7, 2017 Units:  English    Metric   Both
Next Day »
Daily Weekly Monthly Yearly Custom
  High: Low: Average:
Temperature: 50.8 °F 36.7 °F 44.8 °F
Dew Point: 50.0 °F 34.4 °F 43.4 °F
Humidity: 97% 86% 95%
Wind Speed: 26.0mph 0.0mph 8.6mph
Wind Gust: 30.0mph - -
Wind- - SSE
Pressure: 30.18 in 29.99 in -
Precipitation: 0.01 in    
Historical Graphs
 
 
Tabular Data for January 7, 2017
Time Temperature Dew Point Pressure Wind Wind Speed Wind Gust Humidity Rainfall Rate (Hourly) solar Conditions
00:02 38.0 °F 35.3 °F 30.16 in Calm     90% 0.00 in 0.00 W/m2
00:07 37.9 °F 35.2 °F 30.16 in Calm     90% 0.00 in 0.00 W/m2
00:12 37.9 °F 35.2 °F 30.16 in Calm     90% 0.00 in 0.00 W/m2
00:17 37.9 °F 35.2 °F 30.16 in Calm     90% 0.00 in 0.00 W/m2
00:22 37.9 °F 35.2 °F 30.16 in Calm     90% 0.00 in 0.00 W/m2
00:27 37.9 °F 35.2 °F 30.16 in Calm     90% 0.00 in 0.00 W/m2
00:32 37.9 °F 35.2 °F 30.15 in Calm     90% 0.00 in 0.00 W/m2
00:37 37.9 °F 35.2 °F 30.15 in Calm     90% 0.00 in 0.00 W/m2
00:42 37.9 °F 35.5 °F 30.16 in Calm     91% 0.00 in 0.00 W/m2
00:47 37.9 °F 35.2 °F 30.16 in Calm     90% 0.00 in 0.00 W/m2
00:52 37.9 °F 35.2 °F 30.15 in Calm     90% 0.00 in 0.00 W/m2
00:57 37.9 °F 35.2 °F 30.16 in Calm     90% 0.00 in 0.00 W/m2
01:02 37.9 °F 35.2 °F 30.15 in Calm     90% 0.00 in 0.00 W/m2
01:07 37.9 °F 35.2 °F 30.15 in Calm     90% 0.00 in 0.00 W/m2
01:12 37.9 °F 35.0 °F 30.15 in Calm     89% 0.00 in 0.00 W/m2
01:17 37.9 °F 35.0 °F 30.15 in Calm     89% 0.00 in 0.00 W/m2
01:22 37.9 °F 35.0 °F 30.15 in Calm     89% 0.00 in 0.00 W/m2
01:27 37.9 °F 35.0 °F 30.14 in South 1.0 mph 10.0 mph 89% 0.00 in 0.00 W/m2
01:32 38.0 °F 35.0 °F 30.13 in Calm   1.0 mph 89% 0.00 in 0.00 W/m2
01:37 38.0 °F 35.0 °F 30.14 in Calm   8.0 mph 89% 0.00 in 0.00 W/m2
01:42 38.0 °F 35.0 °F 30.15 in Calm   5.0 mph 89% 0.00 in 0.00 W/m2
01:47 38.0 °F 34.8 °F 30.16 in Calm   1.0 mph 88% 0.00 in 0.00 W/m2
01:52 38.2 °F 34.4 °F 30.15 in South 10.0 mph 11.0 mph 86% 0.00 in 0.00 W/m2
01:57 38.5 °F 35.3 °F 30.15 in Calm     88% 0.00 in 0.00 W/m2
02:02 38.5 °F 35.0 °F 30.16 in Calm     87% 0.00 in 0.00 W/m2
02:07 38.5 °F 35.0 °F 30.17 in Calm   1.0 mph 87% 0.00 in 0.00 W/m2
02:12 38.6 °F 35.4 °F 30.17 in Calm   1.0 mph 88% 0.00 in 0.00 W/m2
02:17 38.6 °F 35.4 °F 30.18 in Calm   1.0 mph 88% 0.00 in 0.00 W/m2
02:22 38.6 °F 35.6 °F 30.18 in Calm   1.0 mph 89% 0.00 in 0.00 W/m2
02:27 38.6 °F 35.6 °F 30.18 in Calm     89% 0.00 in 0.00 W/m2
02:32 38.5 °F 35.8 °F 30.17 in Calm     90% 0.00 in 0.00 W/m2
02:37 38.5 °F 35.5 °F 30.17 in SE 9.0 mph 20.0 mph 89% 0.00 in 0.00 W/m2
02:42 38.5 °F 35.0 °F 30.17 in South 15.0 mph 19.0 mph 87% 0.00 in 0.00 W/m2
02:47 38.7 °F 34.9 °F 30.17 in SSE 15.0 mph 16.0 mph 86% 0.00 in 0.00 W/m2
02:52 38.8 °F 35.0 °F 30.17 in SSE 14.0 mph 22.0 mph 86% 0.00 in 0.00 W/m2
02:57 38.9 °F 35.1 °F 30.16 in SSE 11.0 mph 13.0 mph 86% 0.00 in 0.00 W/m2
03:02 38.9 °F 35.4 °F 30.15 in SE 4.0 mph 15.0 mph 87% 0.00 in 0.00 W/m2
03:07 38.9 °F 35.4 °F 30.14 in SE 10.0 mph 22.0 mph 87% 0.00 in 0.00 W/m2
03:13 38.8 °F 35.0 °F 30.14 in SE 9.0 mph 16.0 mph 86% 0.00 in 0.00 W/m2
03:18 38.7 °F 34.9 °F 30.14 in SSE 23.0 mph 25.0 mph 86% 0.00 in 0.00 W/m2
03:23 38.8 °F 35.6 °F 30.14 in SE 10.0 mph 15.0 mph 88% 0.00 in 0.00 W/m2
03:28 38.7 °F 35.5 °F 30.14 in SE 14.0 mph 25.0 mph 88% 0.00 in 0.00 W/m2
03:33 38.6 °F 35.6 °F 30.13 in SSE 15.0 mph 24.0 mph 89% 0.00 in 0.00 W/m2
03:38 38.4 °F 35.7 °F 30.13 in SSE 9.0 mph 20.0 mph 90% 0.04 in 0.00 W/m2
03:43 38.2 °F 35.8 °F 30.12 in SE 16.0 mph 18.0 mph 91% 0.04 in 0.00 W/m2
03:48 38.0 °F 35.9 °F 30.12 in SE 9.0 mph 20.0 mph 92% 0.04 in 0.00 W/m2
03:53 37.8 °F 35.7 °F 30.12 in SE 1.0 mph 19.0 mph 92% 0.04 in 0.00 W/m2
03:58 37.7 °F 35.6 °F 30.11 in SE 11.0 mph 18.0 mph 92% 0.04 in 0.00 W/m2
04:03 37.5 °F 35.4 °F 30.11 in SE 5.0 mph 14.0 mph 92% 0.08 in 0.00 W/m2
04:08 37.4 °F 35.6 °F 30.10 in SE 13.0 mph 14.0 mph 93% 0.07 in 0.00 W/m2
04:13 37.3 °F 35.5 °F 30.09 in SE 16.0 mph 16.0 mph 93% 0.07 in 0.00 W/m2
04:18 37.1 °F 35.3 °F 30.08 in SE 8.0 mph 13.0 mph 93% 0.06 in 0.00 W/m2
04:23 37.0 °F 35.2 °F 30.07 in ESE 7.0 mph 14.0 mph 93% 0.06 in 0.00 W/m2
04:28 36.9 °F 35.1 °F 30.07 in SE 4.0 mph 20.0 mph 93% 0.06 in 0.00 W/m2
04:33 36.8 °F 35.0 °F 30.06 in ESE 8.0 mph 13.0 mph 93% 0.05 in 0.00 W/m2
04:38 36.8 °F 35.2 °F 30.05 in East 2.0 mph 18.0 mph 94% 0.05 in 0.00 W/m2
04:43 36.7 °F 35.1 °F 30.04 in ESE 18.0 mph 18.0 mph 94% 0.04 in 0.00 W/m2
04:48 36.8 °F 35.2 °F 30.04 in ESE 9.0 mph 19.0 mph 94% 0.00 in 0.00 W/m2
04:53 36.8 °F 35.2 °F 30.04 in SSE 5.0 mph 14.0 mph 94% 0.00 in 0.00 W/m2
04:58 36.8 °F 35.2 °F 30.04 in SE 7.0 mph 17.0 mph 94% 0.00 in 0.00 W/m2
05:03 36.8 °F 35.2 °F 30.03 in ESE 7.0 mph 17.0 mph 94% 0.00 in 0.00 W/m2
05:08 36.8 °F 35.2 °F 30.03 in SE 8.0 mph 19.0 mph 94% 0.05 in 0.00 W/m2
05:13 36.8 °F 35.2 °F 30.03 in ESE 6.0 mph 16.0 mph 94% 0.05 in 0.00 W/m2
05:18 36.9 °F 35.3 °F 30.03 in ESE 11.0 mph 18.0 mph 94% 0.05 in 0.00 W/m2
05:23 37.0 °F 35.7 °F 30.02 in SE 8.0 mph 21.0 mph 95% 0.04 in 0.00 W/m2
05:24 37.0 °F 35.7 °F 30.02 in SE 4.0 mph 21.0 mph 95% 0.04 in 0.00 W/m2
05:29 37.0 °F 35.7 °F 30.01 in SE 12.0 mph 17.0 mph 95% 0.00 in 0.00 W/m2
05:34 37.1 °F 35.8 °F 30.01 in SE 9.0 mph 18.0 mph 95% 0.00 in 0.00 W/m2
05:39 37.1 °F 35.8 °F 30.00 in SE 11.0 mph 16.0 mph 95% 0.00 in 0.00 W/m2
05:44 37.2 °F 35.9 °F 30.00 in ESE 4.0 mph 19.0 mph 95% 0.00 in 0.00 W/m2
05:49 37.2 °F 35.9 °F 30.00 in ESE 7.0 mph 17.0 mph 95% 0.00 in 0.00 W/m2
05:54 37.3 °F 36.0 °F 30.00 in SE 8.0 mph 17.0 mph 95% 0.00 in 0.00 W/m2
05:59 37.3 °F 36.0 °F 30.00 in SE 9.0 mph 14.0 mph 95% 0.00 in 0.00 W/m2
06:04 37.4 °F 36.1 °F 30.01 in SE 5.0 mph 14.0 mph 95% 0.00 in 0.00 W/m2
06:09 37.5 °F 36.2 °F 30.01 in SE 9.0 mph 13.0 mph 95% 0.00 in 0.00 W/m2
06:14 37.5 °F 36.2 °F 30.01 in SE 8.0 mph 14.0 mph 95% 0.00 in 0.00 W/m2
06:19 37.6 °F 36.3 °F 30.01 in SSE 2.0 mph 13.0 mph 95% 0.00 in 0.00 W/m2
06:24 37.7 °F 36.4 °F 30.01 in SE 6.0 mph 13.0 mph 95% 0.00 in 0.00 W/m2
06:29 37.8 °F 36.5 °F 30.01 in SE 8.0 mph 12.0 mph 95% 0.00 in 0.00 W/m2
06:34 37.8 °F 36.5 °F 30.01 in South 10.0 mph 15.0 mph 95% 0.00 in 0.00 W/m2
06:39 37.9 °F 36.6 °F 30.00 in SSE 5.0 mph 10.0 mph 95% 0.00 in 0.00 W/m2
06:44 38.0 °F 36.7 °F 30.00 in SSE 7.0 mph 12.0 mph 95% 0.00 in 0.00 W/m2
06:49 38.0 °F 36.7 °F 30.00 in SSE 6.0 mph 12.0 mph 95% 0.00 in 0.00 W/m2
06:54 38.1 °F 36.8 °F 30.00 in SSE 7.0 mph 8.0 mph 95% 0.00 in 0.00 W/m2
06:59 38.3 °F 37.0 °F 29.99 in SE 7.0 mph 9.0 mph 95% 0.00 in 0.00 W/m2
07:04 38.5 °F 37.2 °F 29.99 in SSE 5.0 mph 12.0 mph 95% 0.00 in 0.00 W/m2
07:09 38.6 °F 37.3 °F 29.99 in SSE 10.0 mph 10.0 mph 95% 0.00 in 0.00 W/m2
07:14 38.7 °F 37.4 °F 29.99 in SSE 6.0 mph 9.0 mph 95% 0.06 in 0.00 W/m2
07:19 38.7 °F 37.4 °F 29.99 in SSE 8.0 mph 11.0 mph 95% 0.06 in 0.00 W/m2
07:24 38.8 °F 37.5 °F 30.00 in Calm   8.0 mph 95% 0.09 in 0.00 W/m2
07:29 38.8 °F 37.5 °F 30.00 in South 7.0 mph 10.0 mph 95% 0.09 in 0.00 W/m2
07:34 38.9 °F 37.6 °F 30.00 in SSE 4.0 mph 10.0 mph 95% 0.09 in 0.00 W/m2
07:39 39.0 °F 37.7 °F 29.99 in SSE 7.0 mph 8.0 mph 95% 0.09 in 5.00 W/m2
07:44 39.0 °F 37.7 °F 30.00 in SE 9.0 mph 10.0 mph 95% 0.09 in 5.00 W/m2
07:49 39.1 °F 37.8 °F 30.00 in South 6.0 mph 12.0 mph 95% 0.09 in 7.00 W/m2
07:54 39.1 °F 37.8 °F 30.01 in SSE 4.0 mph 11.0 mph 95% 0.08 in 5.00 W/m2
07:59 39.2 °F 37.9 °F 30.01 in Calm   1.0 mph 95% 0.05 in 7.00 W/m2
08:04 39.3 °F 38.0 °F 30.01 in South 7.0 mph 8.0 mph 95% 0.12 in 9.00 W/m2
08:09 39.3 °F 38.0 °F 30.01 in Calm   9.0 mph 95% 0.12 in 9.00 W/m2
08:14 39.4 °F 38.1 °F 30.01 in South 4.0 mph 8.0 mph 95% 0.06 in 9.00 W/m2
08:19 39.5 °F 38.2 °F 30.02 in South 4.0 mph 11.0 mph 95% 0.06 in 12.00 W/m2
08:24 39.5 °F 38.2 °F 30.01 in SSE 7.0 mph 14.0 mph 95% 0.06 in 12.00 W/m2
08:29 39.6 °F 38.3 °F 30.01 in SSE 8.0 mph 9.0 mph 95% 0.04 in 14.00 W/m2
08:34 39.7 °F 38.4 °F 30.02 in SSE 8.0 mph 10.0 mph 95% 0.00 in 14.00 W/m2
08:39 39.8 °F 38.5 °F 30.02 in SSE 9.0 mph 12.0 mph 95% 0.00 in 14.00 W/m2
08:44 39.8 °F 38.5 °F 30.02 in SSE 6.0 mph 13.0 mph 95% 0.00 in 18.00 W/m2
08:49 40.0 °F 38.7 °F 30.03 in SSE 8.0 mph 11.0 mph 95% 0.00 in 16.00 W/m2
08:54 40.1 °F 38.8 °F 30.03 in South 10.0 mph 13.0 mph 95% 0.00 in 18.00 W/m2
08:59 40.3 °F 39.0 °F 30.03 in SSE 12.0 mph 15.0 mph 95% 0.00 in 25.00 W/m2
09:04 40.5 °F 39.2 °F 30.03 in SSE 10.0 mph 18.0 mph 95% 0.00 in 25.00 W/m2
09:09 40.9 °F 39.6 °F 30.03 in SSE 11.0 mph 26.0 mph 95% 0.00 in 23.00 W/m2
09:10 41.0 °F 39.7 °F 30.03 in SSW 7.0 mph 26.0 mph 95% 0.00 in 19.00 W/m2
09:15 41.6 °F 40.3 °F 30.03 in SSE 8.0 mph 19.0 mph 95% 0.00 in 23.00 W/m2
09:20 42.1 °F 41.0 °F 30.03 in SSE 12.0 mph 19.0 mph 96% 0.00 in 19.00 W/m2
09:25 42.4 °F 41.3 °F 30.03 in South 14.0 mph 21.0 mph 96% 0.00 in 21.00 W/m2
09:30 42.8 °F 41.7 °F 30.04 in SSE 1.0 mph 23.0 mph 96% 0.00 in 30.00 W/m2
09:35 43.1 °F 42.0 °F 30.04 in South 7.0 mph 17.0 mph 96% 0.00 in 46.00 W/m2
09:40 43.5 °F 42.4 °F 30.04 in SE 13.0 mph 24.0 mph 96% 0.07 in 28.00 W/m2
09:46 43.9 °F 42.8 °F 30.05 in South 14.0 mph 21.0 mph 96% 0.07 in 30.00 W/m2
09:51 44.2 °F 43.1 °F 30.05 in South 15.0 mph 19.0 mph 96% 0.04 in 26.00 W/m2
09:56 44.3 °F 43.2 °F 30.06 in South 11.0 mph 21.0 mph 96% 0.00 in 25.00 W/m2
10:01 44.6 °F 43.5 °F 30.06 in SSE 12.0 mph 29.0 mph 96% 0.00 in 28.00 W/m2
10:06 44.9 °F 43.8 °F 30.06 in South 11.0 mph 23.0 mph 96% 0.00 in 47.00 W/m2
10:11 45.1 °F 44.0 °F 30.06 in SSE 15.0 mph 26.0 mph 96% 0.06 in 35.00 W/m2
10:16 45.3 °F 44.2 °F 30.06 in South 14.0 mph 16.0 mph 96% 0.06 in 35.00 W/m2
10:21 45.5 °F 44.4 °F 30.06 in SSE 13.0 mph 21.0 mph 96% 0.06 in 46.00 W/m2
10:26 45.7 °F 44.6 °F 30.06 in SSE 10.0 mph 26.0 mph 96% 0.04 in 32.00 W/m2
10:31 45.9 °F 44.8 °F 30.06 in South 10.0 mph 21.0 mph 96% 0.04 in 37.00 W/m2
10:36 46.1 °F 45.0 °F 30.07 in SSE 6.0 mph 28.0 mph 96% 0.06 in 33.00 W/m2
10:41 46.2 °F 45.1 °F 30.07 in South 15.0 mph 25.0 mph 96% 0.06 in 37.00 W/m2
10:46 46.4 °F 45.3 °F 30.07 in SSE 6.0 mph 26.0 mph 96% 0.06 in 40.00 W/m2
10:51 46.6 °F 45.5 °F 30.07 in SSE 18.0 mph 29.0 mph 96% 0.04 in 46.00 W/m2
10:56 46.7 °F 45.6 °F 30.07 in SSW 20.0 mph 25.0 mph 96% 0.04 in 39.00 W/m2
11:01 46.9 °F 45.8 °F 30.07 in SE 9.0 mph 27.0 mph 96% 0.04 in 44.00 W/m2
11:06 47.0 °F 45.9 °F 30.07 in South 7.0 mph 26.0 mph 96% 0.04 in 47.00 W/m2
11:11 47.1 °F 46.0 °F 30.06 in SW 13.0 mph 28.0 mph 96% 0.00 in 53.00 W/m2
11:16 47.2 °F 46.1 °F 30.07 in South 25.0 mph 30.0 mph 96% 0.00 in 37.00 W/m2
11:21 47.4 °F 46.3 °F 30.06 in SSE 15.0 mph 27.0 mph 96% 0.00 in 65.00 W/m2
11:26 47.5 °F 46.4 °F 30.07 in SSE 14.0 mph 24.0 mph 96% 0.05 in 40.00 W/m2
11:31 47.6 °F 46.5 °F 30.06 in SSE 4.0 mph 26.0 mph 96% 0.05 in 44.00 W/m2
11:36 47.6 °F 46.5 °F 30.07 in South 5.0 mph 24.0 mph 96% 0.05 in 49.00 W/m2
11:41 47.7 °F 46.6 °F 30.06 in South 11.0 mph 22.0 mph 96% 0.05 in 58.00 W/m2
11:46 47.8 °F 46.7 °F 30.06 in South 6.0 mph 30.0 mph 96% 0.04 in 46.00 W/m2
11:51 47.9 °F 46.8 °F 30.06 in SSE 25.0 mph 26.0 mph 96% 0.15 in 53.00 W/m2
11:56 47.9 °F 46.8 °F 30.05 in South 19.0 mph 28.0 mph 96% 0.12 in 58.00 W/m2
12:01 48.0 °F 46.9 °F 30.06 in SSE 11.0 mph 27.0 mph 96% 0.09 in 51.00 W/m2
12:06 48.1 °F 47.0 °F 30.06 in South 24.0 mph 24.0 mph 96% 0.07 in 44.00 W/m2
12:11 48.2 °F 47.1 °F 30.05 in South 19.0 mph 23.0 mph 96% 0.06 in 56.00 W/m2
12:16 48.3 °F 47.2 °F 30.04 in SW 14.0 mph 19.0 mph 96% 0.06 in 63.00 W/m2
12:21 48.3 °F 47.2 °F 30.04 in South 23.0 mph 23.0 mph 96% 0.04 in 47.00 W/m2
12:26 48.4 °F 47.3 °F 30.03 in SSE 7.0 mph 7.0 mph 96% 0.00 in 58.00 W/m2
12:31 48.5 °F 47.4 °F 30.03 in South 14.0 mph 14.0 mph 96% 0.00 in 81.00 W/m2
12:36 48.6 °F 47.5 °F 30.02 in South 18.0 mph 18.0 mph 96% 0.00 in 102.00 W/m2
12:41 48.6 °F 47.5 °F 30.02 in SSE 12.0 mph 12.0 mph 96% 0.00 in 58.00 W/m2
12:46 48.7 °F 47.6 °F 30.02 in SE 15.0 mph 15.0 mph 96% 0.04 in 56.00 W/m2
12:51 48.7 °F 47.6 °F 30.03 in South 21.0 mph 25.0 mph 96% 0.09 in 69.00 W/m2
12:56 48.8 °F 47.7 °F 30.02 in SSE 9.0 mph 11.0 mph 96% 0.09 in 84.00 W/m2
13:01 48.8 °F 47.7 °F 30.02 in SSW 7.0 mph 10.0 mph 96% 0.05 in 42.00 W/m2
13:06 48.9 °F 47.8 °F 30.03 in SSE 11.0 mph 12.0 mph 96% 0.04 in 49.00 W/m2
13:11 48.9 °F 47.8 °F 30.03 in South 12.0 mph 14.0 mph 96% 0.09 in 63.00 W/m2
13:16 49.0 °F 47.9 °F 30.04 in SE 13.0 mph 21.0 mph 96% 0.09 in 77.00 W/m2
13:21 49.0 °F 47.9 °F 30.03 in South 11.0 mph 11.0 mph 96% 0.06 in 121.00 W/m2
13:26 49.1 °F 48.0 °F 30.03 in SSW 16.0 mph 20.0 mph 96% 0.06 in 62.00 W/m2
13:31 49.1 °F 48.0 °F 30.03 in South 12.0 mph 15.0 mph 96% 0.05 in 49.00 W/m2
13:36 49.1 °F 48.0 °F 30.03 in South 14.0 mph 14.0 mph 96% 0.04 in 63.00 W/m2
13:41 49.1 °F 48.0 °F 30.03 in South 11.0 mph 11.0 mph 96% 0.04 in 54.00 W/m2
13:46 49.2 °F 48.1 °F 30.04 in SSE 11.0 mph 13.0 mph 96% 0.04 in 58.00 W/m2
13:51 49.2 °F 48.1 °F 30.04 in South 7.0 mph 10.0 mph 96% 0.04 in 58.00 W/m2
13:56 49.3 °F 48.2 °F 30.04 in South 19.0 mph 22.0 mph 96% 0.00 in 76.00 W/m2
14:01 49.4 °F 48.3 °F 30.04 in SSE 11.0 mph 12.0 mph 96% 0.00 in 53.00 W/m2
14:06 49.4 °F 48.3 °F 30.04 in South 18.0 mph 18.0 mph 96% 0.00 in 47.00 W/m2
14:11 49.5 °F 48.4 °F 30.05 in SSW 16.0 mph 23.0 mph 96% 0.00 in 54.00 W/m2
14:16 49.6 °F 48.5 °F 30.04 in South 13.0 mph 22.0 mph 96% 0.33 in 62.00 W/m2
14:21 49.6 °F 48.5 °F 30.05 in South 6.0 mph 7.0 mph 96% 0.90 in 58.00 W/m2
14:26 49.7 °F 48.6 °F 30.05 in SE 15.0 mph 16.0 mph 96% 0.17 in 83.00 W/m2
14:31 49.7 °F 48.6 °F 30.05 in South 8.0 mph 15.0 mph 96% 0.07 in 58.00 W/m2
14:36 49.8 °F 48.7 °F 30.05 in South 7.0 mph 8.0 mph 96% 0.04 in 56.00 W/m2
14:41 49.8 °F 48.7 °F 30.05 in SSE 15.0 mph 19.0 mph 96% 0.00 in 65.00 W/m2
14:46 49.9 °F 48.8 °F 30.05 in SSE 17.0 mph 17.0 mph 96% 0.00 in 58.00 W/m2
14:51 49.9 °F 48.8 °F 30.05 in SSE 10.0 mph 11.0 mph 96% 0.00 in 53.00 W/m2
14:56 49.9 °F 48.8 °F 30.05 in SSE 10.0 mph 12.0 mph 96% 0.00 in 42.00 W/m2
15:01 49.9 °F 48.8 °F 30.06 in South 5.0 mph 8.0 mph 96% 0.00 in 44.00 W/m2
15:06 49.9 °F 48.8 °F 30.06 in South 13.0 mph 17.0 mph 96% 0.00 in 54.00 W/m2
15:11 49.9 °F 48.8 °F 30.06 in SSE 19.0 mph 19.0 mph 96% 0.00 in 35.00 W/m2
15:16 50.0 °F 48.9 °F 30.07 in SSE 9.0 mph 9.0 mph 96% 0.00 in 33.00 W/m2
15:21 49.9 °F 48.8 °F 30.07 in SSW 10.0 mph 17.0 mph 96% 0.00 in 23.00 W/m2
15:26 49.9 °F 48.8 °F 30.07 in South 7.0 mph 10.0 mph 96% 0.00 in 32.00 W/m2
15:31 49.9 °F 48.8 °F 30.07 in SSE 10.0 mph 11.0 mph 96% 0.00 in 25.00 W/m2
15:36 49.9 °F 48.8 °F 30.08 in South 4.0 mph 19.0 mph 96% 0.00 in 19.00 W/m2
15:41 49.9 °F 48.8 °F 30.08 in South 11.0 mph 13.0 mph 96% 0.00 in 18.00 W/m2
15:46 49.9 °F 48.8 °F 30.07 in SW 4.0 mph 12.0 mph 96% 0.00 in 16.00 W/m2
15:51 49.8 °F 48.7 °F 30.08 in SSE 12.0 mph 21.0 mph 96% 0.00 in 14.00 W/m2
15:56 49.8 °F 48.7 °F 30.08 in South 6.0 mph 17.0 mph 96% 0.00 in 14.00 W/m2
16:01 49.8 °F 48.7 °F 30.08 in SE 18.0 mph 18.0 mph 96% 0.00 in 16.00 W/m2
16:06 49.9 °F 48.8 °F 30.08 in SSE 26.0 mph 26.0 mph 96% 0.00 in 12.00 W/m2
16:11 49.9 °F 48.8 °F 30.08 in SSW 11.0 mph 19.0 mph 96% 0.00 in 21.00 W/m2
16:16 49.9 °F 48.8 °F 30.09 in South 9.0 mph 19.0 mph 96% 0.00 in 12.00 W/m2
16:21 49.9 °F 48.8 °F 30.09 in SSE 8.0 mph 16.0 mph 96% 0.00 in 11.00 W/m2
16:26 49.9 °F 48.8 °F 30.08 in South 9.0 mph 22.0 mph 96% 0.00 in 7.00 W/m2
16:32 50.0 °F 48.9 °F 30.09 in SSW 4.0 mph 9.0 mph 96% 0.00 in 5.00 W/m2
16:37 50.0 °F 48.9 °F 30.09 in SSW 14.0 mph 18.0 mph 96% 0.00 in 5.00 W/m2
16:47 50.0 °F 48.9 °F 30.09 in SSE 7.0 mph 13.0 mph 96% 0.00 in 0.00 W/m2
16:52 50.0 °F 48.9 °F 30.09 in South 17.0 mph 19.0 mph 96% 0.05 in 0.00 W/m2
16:57 50.0 °F 48.9 °F 30.08 in South 8.0 mph 21.0 mph 96% 0.05 in 0.00 W/m2
17:02 50.0 °F 48.9 °F 30.09 in SW 7.0 mph 17.0 mph 96% 0.05 in 0.00 W/m2
17:07 50.1 °F 49.0 °F 30.09 in SSW 5.0 mph 19.0 mph 96% 0.00 in 0.00 W/m2
17:12 50.1 °F 49.0 °F 30.09 in South 20.0 mph 21.0 mph 96% 0.00 in 0.00 W/m2
17:17 50.1 °F 49.0 °F 30.10 in South 13.0 mph 13.0 mph 96% 0.00 in 0.00 W/m2
17:22 50.2 °F 49.1 °F 30.10 in SSE 9.0 mph 15.0 mph 96% 0.00 in 0.00 W/m2
17:27 50.2 °F 49.1 °F 30.10 in SSW 2.0 mph 9.0 mph 96% 0.00 in 0.00 W/m2
17:32 50.2 °F 49.1 °F 30.10 in SSE 13.0 mph 17.0 mph 96% 0.00 in 0.00 W/m2
17:37 50.2 °F 49.1 °F 30.10 in South 6.0 mph 16.0 mph 96% 0.00 in 0.00 W/m2
17:42 50.2 °F 49.1 °F 30.10 in SSW 13.0 mph 13.0 mph 96% 0.00 in 0.00 W/m2
17:47 50.3 °F 49.2 °F 30.11 in SSE 8.0 mph 12.0 mph 96% 0.00 in 0.00 W/m2
17:52 50.2 °F 49.1 °F 30.11 in South 15.0 mph 15.0 mph 96% 0.00 in 0.00 W/m2
17:57 50.2 °F 49.1 °F 30.11 in SSE 7.0 mph 12.0 mph 96% 0.05 in 0.00 W/m2
18:02 50.2 °F 49.1 °F 30.11 in SSE 11.0 mph 12.0 mph 96% 0.05 in 0.00 W/m2
18:07 50.3 °F 49.2 °F 30.11 in SSE 6.0 mph 14.0 mph 96% 0.04 in 0.00 W/m2
18:12 50.2 °F 49.1 °F 30.11 in South 11.0 mph 14.0 mph 96% 0.00 in 0.00 W/m2
18:17 50.2 °F 49.1 °F 30.11 in SSW 7.0 mph 13.0 mph 96% 0.00 in 0.00 W/m2
18:22 50.2 °F 49.1 °F 30.11 in SSE 9.0 mph 14.0 mph 96% 0.00 in 0.00 W/m2
18:27 50.2 °F 49.1 °F 30.11 in South 7.0 mph 7.0 mph 96% 0.00 in 0.00 W/m2
18:32 50.2 °F 49.1 °F 30.11 in SE 12.0 mph 13.0 mph 96% 0.00 in 0.00 W/m2
18:37 50.2 °F 49.1 °F 30.11 in South 11.0 mph 12.0 mph 96% 0.00 in 0.00 W/m2
18:42 50.2 °F 49.1 °F 30.11 in SSE 5.0 mph 9.0 mph 96% 0.00 in 0.00 W/m2
18:47 50.2 °F 49.1 °F 30.12 in SSW 11.0 mph 19.0 mph 96% 0.00 in 0.00 W/m2
18:52 50.2 °F 49.1 °F 30.12 in SSE 11.0 mph 16.0 mph 96% 0.00 in 0.00 W/m2
18:57 50.2 °F 49.1 °F 30.12 in SSE 9.0 mph 16.0 mph 96% 0.00 in 0.00 W/m2
19:02 50.2 °F 49.1 °F 30.12 in SSW 10.0 mph 14.0 mph 96% 0.00 in 0.00 W/m2
19:07 50.2 °F 49.1 °F 30.12 in SW 5.0 mph 17.0 mph 96% 0.00 in 0.00 W/m2
19:12 50.2 °F 49.1 °F 30.12 in South 4.0 mph 12.0 mph 96% 0.54 in 0.00 W/m2
19:17 50.2 °F 49.1 °F 30.12 in SE 11.0 mph 13.0 mph 96% 0.26 in 0.00 W/m2
19:22 50.2 °F 49.1 °F 30.12 in South 8.0 mph 12.0 mph 96% 0.13 in 0.00 W/m2
19:27 50.2 °F 49.1 °F 30.12 in Calm   6.0 mph 96% 0.27 in 0.00 W/m2
19:32 50.2 °F 49.1 °F 30.12 in SSW 5.0 mph 14.0 mph 96% 0.12 in 0.00 W/m2
19:37 50.2 °F 49.1 °F 30.12 in SSW 4.0 mph 8.0 mph 96% 0.21 in 0.00 W/m2
19:42 50.1 °F 49.0 °F 30.12 in SSE 11.0 mph 19.0 mph 96% 0.18 in 0.00 W/m2
19:47 50.1 °F 49.0 °F 30.12 in SSE 11.0 mph 21.0 mph 96% 0.08 in 0.00 W/m2
19:53 50.1 °F 49.0 °F 30.12 in South 10.0 mph 17.0 mph 96% 0.05 in 0.00 W/m2
19:58 50.1 °F 49.0 °F 30.12 in South 11.0 mph 16.0 mph 96% 0.00 in 0.00 W/m2
20:03 50.1 °F 49.0 °F 30.12 in South 3.0 mph 13.0 mph 96% 0.00 in 0.00 W/m2
20:08 50.1 °F 49.0 °F 30.12 in South 6.0 mph 16.0 mph 96% 0.00 in 0.00 W/m2
20:13 50.1 °F 49.0 °F 30.12 in South 8.0 mph 17.0 mph 96% 0.00 in 0.00 W/m2
20:23 50.1 °F 49.0 °F 30.12 in SSE 5.0 mph 13.0 mph 96% 0.00 in 0.00 W/m2
20:28 50.1 °F 49.0 °F 30.12 in South 10.0 mph 15.0 mph 96% 0.00 in 0.00 W/m2
20:33 50.1 °F 49.0 °F 30.13 in Calm   10.0 mph 96% 0.00 in 0.00 W/m2
20:38 50.1 °F 49.0 °F 30.12 in South 3.0 mph 19.0 mph 96% 0.00 in 0.00 W/m2
20:43 50.1 °F 49.0 °F 30.13 in SSE 6.0 mph 12.0 mph 96% 0.00 in 0.00 W/m2
20:48 50.2 °F 49.1 °F 30.13 in South 8.0 mph 15.0 mph 96% 0.00 in 0.00 W/m2
20:53 50.2 °F 49.1 °F 30.13 in SSE 9.0 mph 14.0 mph 96% 0.00 in 0.00 W/m2
20:58 50.2 °F 49.1 °F 30.13 in SSE 8.0 mph 16.0 mph 96% 0.00 in 0.00 W/m2
21:03 50.2 °F 49.1 °F 30.13 in SSE 6.0 mph 12.0 mph 96% 0.00 in 0.00 W/m2
21:08 50.2 °F 49.1 °F 30.13 in South 9.0 mph 14.0 mph 96% 0.00 in 0.00 W/m2
21:13 50.2 °F 49.1 °F 30.13 in SSE 14.0 mph 18.0 mph 96% 0.00 in 0.00 W/m2
21:18 50.3 °F 49.2 °F 30.12 in SSE 5.0 mph 17.0 mph 96% 0.00 in 0.00 W/m2
21:23 50.3 °F 49.2 °F 30.12 in SSE 6.0 mph 15.0 mph 96% 0.00 in 0.00 W/m2
21:28 50.3 °F 49.2 °F 30.12 in SSE 13.0 mph 17.0 mph 96% 0.00 in 0.00 W/m2
21:33 50.3 °F 49.2 °F 30.12 in SE 9.0 mph 14.0 mph 96% 0.00 in 0.00 W/m2
21:38 50.3 °F 49.2 °F 30.12 in South 8.0 mph 18.0 mph 96% 0.00 in 0.00 W/m2
21:43 50.3 °F 49.2 °F 30.12 in South 6.0 mph 13.0 mph 96% 0.00 in 0.00 W/m2
21:48 50.3 °F 49.2 °F 30.12 in South 11.0 mph 15.0 mph 96% 0.04 in 0.00 W/m2
21:53 50.3 °F 49.2 °F 30.13 in South 8.0 mph 13.0 mph 96% 0.04 in 0.00 W/m2
21:58 50.3 °F 49.2 °F 30.13 in South 8.0 mph 14.0 mph 96% 0.06 in 0.00 W/m2
22:03 50.3 °F 49.2 °F 30.13 in South 9.0 mph 11.0 mph 96% 0.06 in 0.00 W/m2
22:08 50.3 °F 49.2 °F 30.13 in South 4.0 mph 13.0 mph 96% 0.07 in 0.00 W/m2
22:13 50.4 °F 49.3 °F 30.13 in South 13.0 mph 16.0 mph 96% 0.10 in 0.00 W/m2
22:18 50.4 °F 49.3 °F 30.13 in South 7.0 mph 19.0 mph 96% 0.10 in 0.00 W/m2
22:23 50.4 °F 49.3 °F 30.13 in SE 8.0 mph 16.0 mph 96% 0.07 in 0.00 W/m2
22:28 50.5 °F 49.4 °F 30.13 in SSE 8.0 mph 18.0 mph 96% 0.10 in 0.00 W/m2
22:33 50.5 °F 49.4 °F 30.13 in ESE 14.0 mph 16.0 mph 96% 0.10 in 0.00 W/m2
22:43 50.5 °F 49.4 °F 30.13 in South 12.0 mph 16.0 mph 96% 0.07 in 0.00 W/m2
22:48 50.5 °F 49.4 °F 30.13 in South 11.0 mph 15.0 mph 96% 0.28 in 0.00 W/m2
22:53 50.5 °F 49.4 °F 30.13 in South 6.0 mph 11.0 mph 96% 0.16 in 0.00 W/m2
22:58 50.5 °F 49.4 °F 30.12 in South 6.0 mph 17.0 mph 96% 0.10 in 0.00 W/m2
23:03 50.5 °F 49.4 °F 30.12 in SSE 13.0 mph 13.0 mph 96% 0.08 in 0.00 W/m2
23:08 50.5 °F 49.4 °F 30.11 in South 6.0 mph 14.0 mph 96% 0.05 in 0.00 W/m2
23:13 50.5 °F 49.4 °F 30.11 in SE 6.0 mph 19.0 mph 96% 0.05 in 0.00 W/m2
23:18 50.5 °F 49.7 °F 30.10 in SE 6.0 mph 17.0 mph 97% 0.05 in 0.00 W/m2
23:23 50.6 °F 49.8 °F 30.10 in SSE 6.0 mph 14.0 mph 97% 0.04 in 0.00 W/m2
23:28 50.5 °F 49.4 °F 30.10 in SSE 7.0 mph 18.0 mph 96% 0.04 in 0.00 W/m2
23:33 50.6 °F 49.8 °F 30.10 in SE 9.0 mph 20.0 mph 97% 0.04 in 0.00 W/m2
23:38 50.6 °F 49.8 °F 30.10 in South 12.0 mph 16.0 mph 97% 0.04 in 0.00 W/m2
23:43 50.6 °F 49.8 °F 30.11 in South 11.0 mph 18.0 mph 97% 0.00 in 0.00 W/m2
23:48 50.7 °F 49.9 °F 30.10 in South 6.0 mph 24.0 mph 97% 0.09 in 0.00 W/m2
23:53 50.8 °F 50.0 °F 30.10 in SSE 14.0 mph 22.0 mph 97% 0.14 in 0.00 W/m2
23:58 50.8 °F 50.0 °F 30.11 in SSW 7.0 mph 16.0 mph 97% 0.18 in 0.00 W/m2
Foresthill Weather
 WU-history PHP script courtesy of   Juneau County Weather.
powered by Cumulus v1.9.3 (1059)
Ambient Weather VWS v14.00
Top Contact Website Map Copyright © 2007 - 2018 Foresthillweather.com Never base important decisions on this or any weather information obtained from the Internet